sensor_id;sensor_type;location;lat;lon;timestamp;P1;durP1;ratioP1;P2;durP2;ratioP2
60641;SDS011;46837;52.446;-1.930;2022-09-12T00:00:07;5.94;;;1.64;;
60641;SDS011;46837;52.446;-1.930;2022-09-12T00:01:08;4.32;;;2.18;;
60641;SDS011;46837;52.446;-1.930;2022-09-12T00:02:07;2.06;;;1.24;;
60641;SDS011;46837;52.446;-1.930;2022-09-12T00:03:07;4.34;;;1.78;;
60641;SDS011;46837;52.446;-1.930;2022-09-12T00:04:08;2.60;;;1.58;;
60641;SDS011;46837;52.446;-1.930;2022-09-12T00:05:07;2.66;;;1.52;;
60641;SDS011;46837;52.446;-1.930;2022-09-12T00:07:07;3.56;;;1.72;;
60641;SDS011;46837;52.446;-1.930;2022-09-12T00:08:07;3.50;;;1.86;;
60641;SDS011;46837;52.446;-1.930;2022-09-12T00:09:08;4.66;;;1.42;;
60641;SDS011;46837;52.446;-1.930;2022-09-12T00:10:07;3.30;;;1.90;;
60641;SDS011;46837;52.446;-1.930;2022-09-12T00:11:07;1.62;;;1.32;;
60641;SDS011;46837;52.446;-1.930;2022-09-12T00:12:07;2.92;;;1.70;;
60641;SDS011;46837;52.446;-1.930;2022-09-12T00:13:07;2.14;;;1.52;;
60641;SDS011;46837;52.446;-1.930;2022-09-12T00:14:08;4.62;;;1.44;;
60641;SDS011;46837;52.446;-1.930;2022-09-12T00:15:07;2.44;;;1.46;;
60641;SDS011;46837;52.446;-1.930;2022-09-12T00:16:07;2.48;;;1.64;;
60641;SDS011;46837;52.446;-1.930;2022-09-12T00:17:07;3.16;;;1.60;;
60641;SDS011;46837;52.446;-1.930;2022-09-12T00:18:07;3.08;;;2.14;;
60641;SDS011;46837;52.446;-1.930;2022-09-12T00:19:07;2.40;;;2.00;;
60641;SDS011;46837;52.446;-1.930;2022-09-12T00:20:07;4.24;;;2.12;;
60641;SDS011;46837;52.446;-1.930;2022-09-12T00:21:07;5.06;;;1.96;;
60641;SDS011;46837;52.446;-1.930;2022-09-12T00:22:07;7.26;;;1.96;;
60641;SDS011;46837;52.446;-1.930;2022-09-12T00:23:07;4.10;;;1.94;;
60641;SDS011;46837;52.446;-1.930;2022-09-12T00:24:07;9.56;;;2.52;;
60641;SDS011;46837;52.446;-1.930;2022-09-12T00:25:07;3.02;;;2.50;;
60641;SDS011;46837;52.446;-1.930;2022-09-12T00:26:07;2.68;;;2.22;;
60641;SDS011;46837;52.446;-1.930;2022-09-12T00:27:07;5.84;;;2.60;;
60641;SDS011;46837;52.446;-1.930;2022-09-12T00:28:07;4.64;;;2.48;;
60641;SDS011;46837;52.446;-1.930;2022-09-12T00:29:07;2.52;;;1.96;;
60641;SDS011;46837;52.446;-1.930;2022-09-12T00:30:07;2.22;;;1.92;;
60641;SDS011;46837;52.446;-1.930;2022-09-12T00:31:11;3.04;;;2.70;;
60641;SDS011;46837;52.446;-1.930;2022-09-12T00:32:07;5.54;;;2.26;;
60641;SDS011;46837;52.446;-1.930;2022-09-12T00:33:07;4.30;;;2.10;;
60641;SDS011;46837;52.446;-1.930;2022-09-12T00:34:07;4.06;;;2.18;;
60641;SDS011;46837;52.446;-1.930;2022-09-12T00:35:07;1.94;;;1.84;;
60641;SDS011;46837;52.446;-1.930;2022-09-12T00:36:16;3.40;;;2.32;;
60641;SDS011;46837;52.446;-1.930;2022-09-12T00:37:07;2.94;;;2.16;;
60641;SDS011;46837;52.446;-1.930;2022-09-12T00:38:07;2.80;;;2.36;;
60641;SDS011;46837;52.446;-1.930;2022-09-12T00:39:07;6.36;;;2.90;;
60641;SDS011;46837;52.446;-1.930;2022-09-12T00:40:07;2.70;;;2.20;;
60641;SDS011;46837;52.446;-1.930;2022-09-12T00:41:09;3.88;;;2.08;;
60641;SDS011;46837;52.446;-1.930;2022-09-12T00:42:08;4.38;;;2.36;;
60641;SDS011;46837;52.446;-1.930;2022-09-12T00:45:08;3.20;;;2.62;;
60641;SDS011;46837;52.446;-1.930;2022-09-12T00:46:26;7.54;;;3.60;;
60641;SDS011;46837;52.446;-1.930;2022-09-12T00:47:15;4.50;;;3.46;;
60641;SDS011;46837;52.446;-1.930;2022-09-12T00:48:07;6.98;;;3.60;;
60641;SDS011;46837;52.446;-1.930;2022-09-12T00:49:14;6.52;;;3.66;;
60641;SDS011;46837;52.446;-1.930;2022-09-12T00:50:08;3.12;;;2.82;;
60641;SDS011;46837;52.446;-1.930;2022-09-12T00:51:07;6.06;;;3.20;;
60641;SDS011;46837;52.446;-1.930;2022-09-12T00:52:08;8.08;;;2.74;;
60641;SDS011;46837;52.446;-1.930;2022-09-12T00:53:07;15.22;;;3.54;;
60641;SDS011;46837;52.446;-1.930;2022-09-12T00:54:08;4.16;;;3.08;;
60641;SDS011;46837;52.446;-1.930;2022-09-12T00:55:11;5.04;;;3.32;;
60641;SDS011;46837;52.446;-1.930;2022-09-12T00:56:07;5.76;;;2.90;;
60641;SDS011;46837;52.446;-1.930;2022-09-12T00:57:07;5.52;;;3.00;;
60641;SDS011;46837;52.446;-1.930;2022-09-12T00:59:09;4.18;;;3.32;;
60641;SDS011;46837;52.446;-1.930;2022-09-12T01:00:09;3.88;;;3.18;;
60641;SDS011;46837;52.446;-1.930;2022-09-12T01:01:07;9.32;;;3.26;;
60641;SDS011;46837;52.446;-1.930;2022-09-12T01:02:07;9.76;;;3.80;;
60641;SDS011;46837;52.446;-1.930;2022-09-12T01:03:11;3.62;;;3.38;;
60641;SDS011;46837;52.446;-1.930;2022-09-12T01:04:07;4.04;;;3.72;;
60641;SDS011;46837;52.446;-1.930;2022-09-12T01:05:07;5.38;;;3.66;;
60641;SDS011;46837;52.446;-1.930;2022-09-12T01:07:07;5.88;;;3.12;;
60641;SDS011;46837;52.446;-1.930;2022-09-12T01:08:07;6.10;;;3.58;;
60641;SDS011;46837;52.446;-1.930;2022-09-12T01:09:07;6.00;;;3.02;;
60641;SDS011;46837;52.446;-1.930;2022-09-12T01:10:07;6.22;;;3.30;;
60641;SDS011;46837;52.446;-1.930;2022-09-12T01:11:07;4.54;;;3.08;;
60641;SDS011;46837;52.446;-1.930;2022-09-12T01:12:07;5.22;;;3.56;;
60641;SDS011;46837;52.446;-1.930;2022-09-12T01:13:07;7.52;;;3.52;;
60641;SDS011;46837;52.446;-1.930;2022-09-12T01:14:07;4.90;;;3.74;;
60641;SDS011;46837;52.446;-1.930;2022-09-12T01:15:07;4.02;;;3.38;;
60641;SDS011;46837;52.446;-1.930;2022-09-12T01:16:07;4.84;;;3.98;;
60641;SDS011;46837;52.446;-1.930;2022-09-12T01:17:10;3.74;;;3.42;;
60641;SDS011;46837;52.446;-1.930;2022-09-12T01:20:14;4.60;;;3.94;;
60641;SDS011;46837;52.446;-1.930;2022-09-12T01:21:13;3.82;;;3.50;;
60641;SDS011;46837;52.446;-1.930;2022-09-12T01:29:16;4.76;;;4.00;;
60641;SDS011;46837;52.446;-1.930;2022-09-12T01:32:14;7.62;;;4.04;;
60641;SDS011;46837;52.446;-1.930;2022-09-12T01:42:14;6.16;;;3.98;;
60641;SDS011;46837;52.446;-1.930;2022-09-12T01:47:12;5.22;;;4.64;;
60641;SDS011;46837;52.446;-1.930;2022-09-12T01:48:10;6.12;;;4.04;;
60641;SDS011;46837;52.446;-1.930;2022-09-12T01:49:15;3.84;;;3.52;;
60641;SDS011;46837;52.446;-1.930;2022-09-12T01:50:10;5.54;;;4.46;;
60641;SDS011;46837;52.446;-1.930;2022-09-12T01:51:17;6.54;;;3.76;;
60641;SDS011;46837;52.446;-1.930;2022-09-12T01:52:27;4.52;;;4.12;;
60641;SDS011;46837;52.446;-1.930;2022-09-12T01:54:08;5.34;;;3.76;;
60641;SDS011;46837;52.446;-1.930;2022-09-12T01:56:08;5.66;;;4.30;;
60641;SDS011;46837;52.446;-1.930;2022-09-12T01:57:09;5.30;;;4.76;;
60641;SDS011;46837;52.446;-1.930;2022-09-12T01:59:12;5.92;;;3.96;;
60641;SDS011;46837;52.446;-1.930;2022-09-12T02:00:08;11.86;;;5.66;;
60641;SDS011;46837;52.446;-1.930;2022-09-12T02:01:11;4.94;;;4.56;;
60641;SDS011;46837;52.446;-1.930;2022-09-12T02:02:08;6.86;;;4.28;;
60641;SDS011;46837;52.446;-1.930;2022-09-12T02:03:11;11.60;;;5.12;;
60641;SDS011;46837;52.446;-1.930;2022-09-12T02:05:12;7.76;;;5.06;;
60641;SDS011;46837;52.446;-1.930;2022-09-12T02:06:08;9.42;;;5.14;;
60641;SDS011;46837;52.446;-1.930;2022-09-12T02:07:09;8.78;;;5.14;;
60641;SDS011;46837;52.446;-1.930;2022-09-12T02:08:08;5.84;;;5.10;;
60641;SDS011;46837;52.446;-1.930;2022-09-12T02:09:11;5.10;;;4.30;;
60641;SDS011;46837;52.446;-1.930;2022-09-12T02:11:08;10.56;;;5.08;;
60641;SDS011;46837;52.446;-1.930;2022-09-12T02:12:07;5.06;;;4.04;;
60641;SDS011;46837;52.446;-1.930;2022-09-12T02:14:08;8.78;;;4.46;;
60641;SDS011;46837;52.446;-1.930;2022-09-12T02:15:08;4.74;;;4.32;;
60641;SDS011;46837;52.446;-1.930;2022-09-12T02:16:10;4.88;;;4.32;;
60641;SDS011;46837;52.446;-1.930;2022-09-12T02:17:11;7.82;;;4.50;;
60641;SDS011;46837;52.446;-1.930;2022-09-12T02:18:07;5.12;;;3.84;;
60641;SDS011;46837;52.446;-1.930;2022-09-12T02:19:26;6.86;;;4.20;;
60641;SDS011;46837;52.446;-1.930;2022-09-12T02:21:07;7.68;;;4.60;;
60641;SDS011;46837;52.446;-1.930;2022-09-12T02:22:07;8.44;;;4.86;;
60641;SDS011;46837;52.446;-1.930;2022-09-12T02:23:08;6.64;;;4.42;;
60641;SDS011;46837;52.446;-1.930;2022-09-12T02:24:07;9.74;;;4.16;;
60641;SDS011;46837;52.446;-1.930;2022-09-12T02:25:07;9.02;;;4.64;;
60641;SDS011;46837;52.446;-1.930;2022-09-12T02:26:09;9.34;;;6.00;;
60641;SDS011;46837;52.446;-1.930;2022-09-12T02:27:09;7.84;;;4.74;;
60641;SDS011;46837;52.446;-1.930;2022-09-12T02:28:11;11.04;;;5.08;;
60641;SDS011;46837;52.446;-1.930;2022-09-12T02:29:07;7.34;;;4.68;;
60641;SDS011;46837;52.446;-1.930;2022-09-12T02:30:07;5.84;;;4.50;;
60641;SDS011;46837;52.446;-1.930;2022-09-12T02:32:11;7.32;;;4.86;;
60641;SDS011;46837;52.446;-1.930;2022-09-12T02:35:12;7.02;;;4.88;;
60641;SDS011;46837;52.446;-1.930;2022-09-12T02:36:31;6.94;;;5.00;;
60641;SDS011;46837;52.446;-1.930;2022-09-12T02:37:11;7.02;;;4.98;;
60641;SDS011;46837;52.446;-1.930;2022-09-12T02:39:07;5.46;;;4.84;;
60641;SDS011;46837;52.446;-1.930;2022-09-12T02:40:08;4.98;;;4.50;;
60641;SDS011;46837;52.446;-1.930;2022-09-12T02:41:07;8.38;;;5.54;;
60641;SDS011;46837;52.446;-1.930;2022-09-12T02:42:07;5.96;;;4.52;;
60641;SDS011;46837;52.446;-1.930;2022-09-12T02:43:07;5.68;;;4.14;;
60641;SDS011;46837;52.446;-1.930;2022-09-12T02:44:07;8.46;;;5.22;;
60641;SDS011;46837;52.446;-1.930;2022-09-12T02:45:07;5.98;;;5.40;;
60641;SDS011;46837;52.446;-1.930;2022-09-12T02:46:07;9.48;;;5.48;;
60641;SDS011;46837;52.446;-1.930;2022-09-12T02:47:08;8.28;;;5.24;;
60641;SDS011;46837;52.446;-1.930;2022-09-12T02:48:08;8.48;;;5.18;;
60641;SDS011;46837;52.446;-1.930;2022-09-12T02:49:07;6.26;;;5.54;;
60641;SDS011;46837;52.446;-1.930;2022-09-12T02:50:07;6.14;;;5.60;;
60641;SDS011;46837;52.446;-1.930;2022-09-12T02:51:07;6.60;;;5.30;;
60641;SDS011;46837;52.446;-1.930;2022-09-12T02:52:07;8.28;;;5.92;;
60641;SDS011;46837;52.446;-1.930;2022-09-12T02:53:07;8.76;;;5.14;;
60641;SDS011;46837;52.446;-1.930;2022-09-12T02:54:07;7.06;;;4.54;;
60641;SDS011;46837;52.446;-1.930;2022-09-12T02:55:07;7.34;;;5.40;;
60641;SDS011;46837;52.446;-1.930;2022-09-12T02:56:08;9.72;;;4.78;;
60641;SDS011;46837;52.446;-1.930;2022-09-12T02:58:26;9.02;;;5.22;;
60641;SDS011;46837;52.446;-1.930;2022-09-12T02:59:07;6.68;;;4.80;;
60641;SDS011;46837;52.446;-1.930;2022-09-12T03:00:07;5.84;;;5.28;;
60641;SDS011;46837;52.446;-1.930;2022-09-12T03:06:17;5.74;;;5.28;;
60641;SDS011;46837;52.446;-1.930;2022-09-12T03:07:12;8.68;;;5.10;;
60641;SDS011;46837;52.446;-1.930;2022-09-12T03:09:11;5.34;;;4.78;;
60641;SDS011;46837;52.446;-1.930;2022-09-12T03:10:10;10.96;;;5.84;;
60641;SDS011;46837;52.446;-1.930;2022-09-12T03:12:26;10.88;;;5.42;;
60641;SDS011;46837;52.446;-1.930;2022-09-12T03:17:10;9.40;;;5.12;;
60641;SDS011;46837;52.446;-1.930;2022-09-12T03:18:12;6.48;;;5.56;;
60641;SDS011;46837;52.446;-1.930;2022-09-12T03:20:12;8.36;;;6.14;;
60641;SDS011;46837;52.446;-1.930;2022-09-12T03:21:09;6.40;;;4.78;;
60641;SDS011;46837;52.446;-1.930;2022-09-12T03:23:09;7.70;;;5.06;;
60641;SDS011;46837;52.446;-1.930;2022-09-12T03:28:08;8.68;;;5.40;;
60641;SDS011;46837;52.446;-1.930;2022-09-12T03:29:07;6.98;;;4.62;;
60641;SDS011;46837;52.446;-1.930;2022-09-12T03:30:07;6.92;;;4.74;;
60641;SDS011;46837;52.446;-1.930;2022-09-12T03:31:10;6.22;;;5.50;;
60641;SDS011;46837;52.446;-1.930;2022-09-12T03:32:07;6.76;;;4.92;;
60641;SDS011;46837;52.446;-1.930;2022-09-12T03:33:09;9.04;;;5.94;;
60641;SDS011;46837;52.446;-1.930;2022-09-12T03:34:07;6.42;;;4.86;;
60641;SDS011;46837;52.446;-1.930;2022-09-12T03:35:07;6.78;;;4.74;;
60641;SDS011;46837;52.446;-1.930;2022-09-12T03:37:07;6.86;;;5.62;;
60641;SDS011;46837;52.446;-1.930;2022-09-12T03:38:07;5.82;;;5.24;;
60641;SDS011;46837;52.446;-1.930;2022-09-12T03:39:07;8.50;;;6.32;;
60641;SDS011;46837;52.446;-1.930;2022-09-12T03:40:07;7.20;;;4.96;;
60641;SDS011;46837;52.446;-1.930;2022-09-12T03:41:07;7.32;;;5.46;;
60641;SDS011;46837;52.446;-1.930;2022-09-12T03:42:07;13.02;;;5.44;;
60641;SDS011;46837;52.446;-1.930;2022-09-12T03:43:07;9.68;;;6.16;;
60641;SDS011;46837;52.446;-1.930;2022-09-12T03:44:07;10.26;;;5.06;;
60641;SDS011;46837;52.446;-1.930;2022-09-12T03:45:07;7.42;;;5.64;;
60641;SDS011;46837;52.446;-1.930;2022-09-12T03:46:07;6.36;;;5.48;;
60641;SDS011;46837;52.446;-1.930;2022-09-12T03:47:07;10.52;;;5.84;;
60641;SDS011;46837;52.446;-1.930;2022-09-12T03:48:07;11.06;;;6.60;;
60641;SDS011;46837;52.446;-1.930;2022-09-12T03:49:07;8.02;;;6.14;;
60641;SDS011;46837;52.446;-1.930;2022-09-12T03:50:07;7.34;;;5.74;;
60641;SDS011;46837;52.446;-1.930;2022-09-12T03:51:08;7.16;;;5.42;;
60641;SDS011;46837;52.446;-1.930;2022-09-12T03:52:07;7.18;;;5.66;;
60641;SDS011;46837;52.446;-1.930;2022-09-12T03:53:07;5.46;;;4.78;;
60641;SDS011;46837;52.446;-1.930;2022-09-12T03:54:07;9.86;;;5.54;;
60641;SDS011;46837;52.446;-1.930;2022-09-12T03:55:07;8.32;;;5.16;;
60641;SDS011;46837;52.446;-1.930;2022-09-12T03:56:08;6.10;;;4.88;;
60641;SDS011;46837;52.446;-1.930;2022-09-12T03:57:07;8.84;;;4.96;;
60641;SDS011;46837;52.446;-1.930;2022-09-12T03:58:07;8.60;;;5.76;;
60641;SDS011;46837;52.446;-1.930;2022-09-12T03:59:07;7.36;;;5.62;;
60641;SDS011;46837;52.446;-1.930;2022-09-12T04:00:07;5.42;;;4.74;;
60641;SDS011;46837;52.446;-1.930;2022-09-12T04:01:08;11.02;;;5.84;;
60641;SDS011;46837;52.446;-1.930;2022-09-12T04:02:07;4.88;;;4.44;;
60641;SDS011;46837;52.446;-1.930;2022-09-12T04:03:07;6.56;;;5.16;;
60641;SDS011;46837;52.446;-1.930;2022-09-12T04:04:07;8.68;;;5.72;;
60641;SDS011;46837;52.446;-1.930;2022-09-12T04:05:07;5.96;;;4.92;;
60641;SDS011;46837;52.446;-1.930;2022-09-12T04:06:07;7.32;;;5.34;;
60641;SDS011;46837;52.446;-1.930;2022-09-12T04:07:07;8.34;;;5.96;;
60641;SDS011;46837;52.446;-1.930;2022-09-12T04:08:07;7.72;;;5.40;;
60641;SDS011;46837;52.446;-1.930;2022-09-12T04:09:07;10.60;;;5.66;;
60641;SDS011;46837;52.446;-1.930;2022-09-12T04:10:07;6.60;;;5.34;;
60641;SDS011;46837;52.446;-1.930;2022-09-12T04:11:08;7.44;;;6.10;;
60641;SDS011;46837;52.446;-1.930;2022-09-12T04:12:07;6.46;;;4.52;;
60641;SDS011;46837;52.446;-1.930;2022-09-12T04:13:07;10.10;;;5.14;;
60641;SDS011;46837;52.446;-1.930;2022-09-12T04:14:07;7.24;;;5.28;;
60641;SDS011;46837;52.446;-1.930;2022-09-12T04:15:07;9.54;;;5.26;;
60641;SDS011;46837;52.446;-1.930;2022-09-12T04:16:07;10.52;;;4.78;;
60641;SDS011;46837;52.446;-1.930;2022-09-12T04:17:07;8.06;;;5.54;;
60641;SDS011;46837;52.446;-1.930;2022-09-12T04:18:07;5.04;;;4.26;;
60641;SDS011;46837;52.446;-1.930;2022-09-12T04:19:07;7.12;;;5.04;;
60641;SDS011;46837;52.446;-1.930;2022-09-12T04:20:07;8.06;;;5.22;;
60641;SDS011;46837;52.446;-1.930;2022-09-12T04:21:08;7.98;;;5.36;;
60641;SDS011;46837;52.446;-1.930;2022-09-12T04:22:07;5.84;;;4.56;;
60641;SDS011;46837;52.446;-1.930;2022-09-12T04:23:07;5.32;;;4.82;;
60641;SDS011;46837;52.446;-1.930;2022-09-12T04:24:07;9.06;;;4.74;;
60641;SDS011;46837;52.446;-1.930;2022-09-12T04:25:07;4.34;;;3.92;;
60641;SDS011;46837;52.446;-1.930;2022-09-12T04:26:08;8.02;;;4.16;;
60641;SDS011;46837;52.446;-1.930;2022-09-12T04:27:07;6.22;;;4.48;;
60641;SDS011;46837;52.446;-1.930;2022-09-12T04:28:07;4.96;;;4.50;;
60641;SDS011;46837;52.446;-1.930;2022-09-12T04:29:08;6.44;;;4.32;;
60641;SDS011;46837;52.446;-1.930;2022-09-12T04:30:07;8.76;;;4.64;;
60641;SDS011;46837;52.446;-1.930;2022-09-12T04:31:08;8.08;;;5.58;;
60641;SDS011;46837;52.446;-1.930;2022-09-12T04:32:07;6.28;;;3.86;;
60641;SDS011;46837;52.446;-1.930;2022-09-12T04:33:07;9.98;;;4.94;;
60641;SDS011;46837;52.446;-1.930;2022-09-12T04:34:07;9.64;;;4.42;;
60641;SDS011;46837;52.446;-1.930;2022-09-12T04:35:07;4.50;;;4.06;;
60641;SDS011;46837;52.446;-1.930;2022-09-12T04:36:08;4.62;;;3.80;;
60641;SDS011;46837;52.446;-1.930;2022-09-12T04:37:07;5.00;;;4.12;;
60641;SDS011;46837;52.446;-1.930;2022-09-12T04:38:07;7.46;;;4.04;;
60641;SDS011;46837;52.446;-1.930;2022-09-12T04:39:07;6.04;;;4.32;;
60641;SDS011;46837;52.446;-1.930;2022-09-12T04:40:07;4.68;;;4.10;;
60641;SDS011;46837;52.446;-1.930;2022-09-12T04:42:07;6.10;;;4.40;;
60641;SDS011;46837;52.446;-1.930;2022-09-12T04:43:07;7.16;;;5.68;;
60641;SDS011;46837;52.446;-1.930;2022-09-12T04:44:09;5.10;;;4.00;;
60641;SDS011;46837;52.446;-1.930;2022-09-12T04:45:07;6.62;;;4.90;;
60641;SDS011;46837;52.446;-1.930;2022-09-12T04:46:07;13.94;;;4.48;;
60641;SDS011;46837;52.446;-1.930;2022-09-12T04:47:07;8.74;;;4.54;;
60641;SDS011;46837;52.446;-1.930;2022-09-12T04:48:07;8.38;;;4.60;;
60641;SDS011;46837;52.446;-1.930;2022-09-12T04:49:07;6.50;;;4.06;;
60641;SDS011;46837;52.446;-1.930;2022-09-12T04:50:07;5.14;;;3.82;;
60641;SDS011;46837;52.446;-1.930;2022-09-12T04:51:10;6.84;;;4.52;;
60641;SDS011;46837;52.446;-1.930;2022-09-12T04:52:07;4.44;;;3.40;;
60641;SDS011;46837;52.446;-1.930;2022-09-12T04:53:07;9.26;;;4.12;;
60641;SDS011;46837;52.446;-1.930;2022-09-12T04:54:09;6.88;;;4.12;;
60641;SDS011;46837;52.446;-1.930;2022-09-12T04:55:07;4.54;;;3.94;;
60641;SDS011;46837;52.446;-1.930;2022-09-12T04:56:08;5.42;;;4.08;;
60641;SDS011;46837;52.446;-1.930;2022-09-12T04:57:07;11.76;;;5.14;;
60641;SDS011;46837;52.446;-1.930;2022-09-12T04:58:07;8.00;;;4.42;;
60641;SDS011;46837;52.446;-1.930;2022-09-12T04:59:07;5.90;;;4.10;;
60641;SDS011;46837;52.446;-1.930;2022-09-12T05:00:07;7.72;;;4.20;;
60641;SDS011;46837;52.446;-1.930;2022-09-12T05:01:07;5.14;;;3.62;;
60641;SDS011;46837;52.446;-1.930;2022-09-12T05:02:07;8.06;;;4.84;;
60641;SDS011;46837;52.446;-1.930;2022-09-12T05:03:07;6.60;;;4.10;;
60641;SDS011;46837;52.446;-1.930;2022-09-12T05:04:08;5.30;;;4.42;;
60641;SDS011;46837;52.446;-1.930;2022-09-12T05:05:07;6.30;;;4.24;;
60641;SDS011;46837;52.446;-1.930;2022-09-12T05:06:07;4.14;;;3.60;;
60641;SDS011;46837;52.446;-1.930;2022-09-12T05:07:07;4.04;;;3.72;;
60641;SDS011;46837;52.446;-1.930;2022-09-12T05:08:07;4.20;;;3.80;;
60641;SDS011;46837;52.446;-1.930;2022-09-12T05:09:07;8.56;;;4.30;;
60641;SDS011;46837;52.446;-1.930;2022-09-12T05:10:07;4.60;;;4.16;;
60641;SDS011;46837;52.446;-1.930;2022-09-12T05:11:09;6.88;;;4.40;;
60641;SDS011;46837;52.446;-1.930;2022-09-12T05:12:07;4.32;;;3.92;;
60641;SDS011;46837;52.446;-1.930;2022-09-12T05:13:07;5.04;;;4.52;;
60641;SDS011;46837;52.446;-1.930;2022-09-12T05:14:07;5.44;;;3.90;;
60641;SDS011;46837;52.446;-1.930;2022-09-12T05:15:07;5.76;;;4.92;;
60641;SDS011;46837;52.446;-1.930;2022-09-12T05:16:07;8.94;;;5.52;;
60641;SDS011;46837;52.446;-1.930;2022-09-12T05:17:07;6.14;;;4.20;;
60641;SDS011;46837;52.446;-1.930;2022-09-12T05:18:07;7.48;;;4.56;;
60641;SDS011;46837;52.446;-1.930;2022-09-12T05:19:08;5.50;;;4.14;;
60641;SDS011;46837;52.446;-1.930;2022-09-12T05:20:07;4.36;;;3.74;;
60641;SDS011;46837;52.446;-1.930;2022-09-12T05:21:07;5.84;;;4.10;;
60641;SDS011;46837;52.446;-1.930;2022-09-12T05:22:07;4.18;;;3.82;;
60641;SDS011;46837;52.446;-1.930;2022-09-12T05:23:07;7.48;;;4.38;;
60641;SDS011;46837;52.446;-1.930;2022-09-12T05:24:08;4.64;;;3.82;;
60641;SDS011;46837;52.446;-1.930;2022-09-12T05:25:07;8.76;;;4.46;;
60641;SDS011;46837;52.446;-1.930;2022-09-12T05:26:07;7.08;;;3.92;;
60641;SDS011;46837;52.446;-1.930;2022-09-12T05:27:07;5.74;;;3.92;;
60641;SDS011;46837;52.446;-1.930;2022-09-12T05:28:07;9.06;;;4.58;;
60641;SDS011;46837;52.446;-1.930;2022-09-12T05:29:07;5.54;;;4.12;;
60641;SDS011;46837;52.446;-1.930;2022-09-12T05:30:07;4.50;;;3.96;;
60641;SDS011;46837;52.446;-1.930;2022-09-12T05:31:08;7.20;;;4.58;;
60641;SDS011;46837;52.446;-1.930;2022-09-12T05:32:07;7.24;;;4.32;;
60641;SDS011;46837;52.446;-1.930;2022-09-12T05:33:07;8.26;;;4.00;;
60641;SDS011;46837;52.446;-1.930;2022-09-12T05:34:07;4.26;;;3.84;;
60641;SDS011;46837;52.446;-1.930;2022-09-12T05:35:07;4.04;;;3.44;;
60641;SDS011;46837;52.446;-1.930;2022-09-12T05:36:09;5.14;;;3.46;;
60641;SDS011;46837;52.446;-1.930;2022-09-12T05:37:07;10.64;;;3.88;;
60641;SDS011;46837;52.446;-1.930;2022-09-12T05:38:07;5.48;;;3.62;;
60641;SDS011;46837;52.446;-1.930;2022-09-12T05:39:07;5.50;;;4.12;;
60641;SDS011;46837;52.446;-1.930;2022-09-12T05:40:08;5.68;;;4.50;;
60641;SDS011;46837;52.446;-1.930;2022-09-12T05:41:08;4.68;;;4.16;;
60641;SDS011;46837;52.446;-1.930;2022-09-12T05:42:07;9.24;;;4.64;;
60641;SDS011;46837;52.446;-1.930;2022-09-12T05:43:07;3.66;;;3.28;;
60641;SDS011;46837;52.446;-1.930;2022-09-12T05:44:10;10.38;;;4.50;;
60641;SDS011;46837;52.446;-1.930;2022-09-12T05:45:07;6.84;;;3.62;;
60641;SDS011;46837;52.446;-1.930;2022-09-12T05:46:11;6.46;;;3.58;;
60641;SDS011;46837;52.446;-1.930;2022-09-12T05:47:07;5.82;;;3.70;;
60641;SDS011;46837;52.446;-1.930;2022-09-12T05:48:07;5.04;;;4.30;;
60641;SDS011;46837;52.446;-1.930;2022-09-12T05:49:08;4.12;;;3.80;;
60641;SDS011;46837;52.446;-1.930;2022-09-12T05:50:10;12.50;;;5.36;;
60641;SDS011;46837;52.446;-1.930;2022-09-12T05:51:10;5.02;;;4.56;;
60641;SDS011;46837;52.446;-1.930;2022-09-12T05:52:07;9.36;;;4.16;;
60641;SDS011;46837;52.446;-1.930;2022-09-12T05:53:07;7.24;;;4.26;;
60641;SDS011;46837;52.446;-1.930;2022-09-12T05:54:07;8.68;;;4.64;;
60641;SDS011;46837;52.446;-1.930;2022-09-12T05:55:07;6.44;;;4.58;;
60641;SDS011;46837;52.446;-1.930;2022-09-12T05:56:08;8.66;;;4.70;;
60641;SDS011;46837;52.446;-1.930;2022-09-12T05:57:07;7.20;;;4.66;;
60641;SDS011;46837;52.446;-1.930;2022-09-12T05:58:07;7.46;;;4.36;;
60641;SDS011;46837;52.446;-1.930;2022-09-12T05:59:10;7.66;;;4.62;;
60641;SDS011;46837;52.446;-1.930;2022-09-12T06:00:08;8.10;;;4.40;;
60641;SDS011;46837;52.446;-1.930;2022-09-12T06:01:08;6.84;;;5.14;;
60641;SDS011;46837;52.446;-1.930;2022-09-12T06:02:07;5.72;;;5.22;;
60641;SDS011;46837;52.446;-1.930;2022-09-12T06:03:07;6.56;;;4.50;;
60641;SDS011;46837;52.446;-1.930;2022-09-12T06:04:07;7.64;;;4.22;;
60641;SDS011;46837;52.446;-1.930;2022-09-12T06:05:07;7.00;;;5.20;;
60641;SDS011;46837;52.446;-1.930;2022-09-12T06:06:07;9.86;;;5.38;;
60641;SDS011;46837;52.446;-1.930;2022-09-12T06:07:07;8.88;;;6.12;;
60641;SDS011;46837;52.446;-1.930;2022-09-12T06:08:07;8.38;;;5.64;;
60641;SDS011;46837;52.446;-1.930;2022-09-12T06:09:07;6.42;;;4.96;;
60641;SDS011;46837;52.446;-1.930;2022-09-12T06:10:07;8.06;;;5.50;;
60641;SDS011;46837;52.446;-1.930;2022-09-12T06:11:07;9.72;;;5.28;;
60641;SDS011;46837;52.446;-1.930;2022-09-12T06:12:07;5.92;;;5.38;;
60641;SDS011;46837;52.446;-1.930;2022-09-12T06:13:07;7.66;;;5.68;;
60641;SDS011;46837;52.446;-1.930;2022-09-12T06:14:07;6.24;;;4.86;;
60641;SDS011;46837;52.446;-1.930;2022-09-12T06:15:07;6.72;;;4.58;;
60641;SDS011;46837;52.446;-1.930;2022-09-12T06:16:08;10.58;;;4.82;;
60641;SDS011;46837;52.446;-1.930;2022-09-12T06:17:07;7.08;;;4.98;;
60641;SDS011;46837;52.446;-1.930;2022-09-12T06:18:07;8.56;;;5.46;;
60641;SDS011;46837;52.446;-1.930;2022-09-12T06:19:11;6.84;;;5.90;;
60641;SDS011;46837;52.446;-1.930;2022-09-12T06:20:07;7.76;;;6.12;;
60641;SDS011;46837;52.446;-1.930;2022-09-12T06:21:07;12.16;;;5.66;;
60641;SDS011;46837;52.446;-1.930;2022-09-12T06:22:07;10.12;;;5.40;;
60641;SDS011;46837;52.446;-1.930;2022-09-12T06:23:07;7.90;;;5.52;;
60641;SDS011;46837;52.446;-1.930;2022-09-12T06:24:07;6.36;;;4.66;;
60641;SDS011;46837;52.446;-1.930;2022-09-12T06:25:07;8.90;;;4.92;;
60641;SDS011;46837;52.446;-1.930;2022-09-12T06:26:08;8.04;;;5.40;;
60641;SDS011;46837;52.446;-1.930;2022-09-12T06:27:07;8.86;;;5.10;;
60641;SDS011;46837;52.446;-1.930;2022-09-12T06:28:07;7.80;;;5.22;;
60641;SDS011;46837;52.446;-1.930;2022-09-12T06:29:08;6.62;;;5.04;;
60641;SDS011;46837;52.446;-1.930;2022-09-12T06:30:07;7.78;;;5.30;;
60641;SDS011;46837;52.446;-1.930;2022-09-12T06:31:08;7.74;;;5.42;;
60641;SDS011;46837;52.446;-1.930;2022-09-12T06:32:07;6.72;;;4.88;;
60641;SDS011;46837;52.446;-1.930;2022-09-12T06:33:07;6.40;;;5.76;;
60641;SDS011;46837;52.446;-1.930;2022-09-12T06:34:07;9.88;;;5.46;;
60641;SDS011;46837;52.446;-1.930;2022-09-12T06:35:07;7.72;;;5.10;;
60641;SDS011;46837;52.446;-1.930;2022-09-12T06:36:08;9.36;;;5.56;;
60641;SDS011;46837;52.446;-1.930;2022-09-12T06:37:07;8.32;;;5.50;;
60641;SDS011;46837;52.446;-1.930;2022-09-12T06:38:07;7.06;;;5.70;;
60641;SDS011;46837;52.446;-1.930;2022-09-12T06:39:11;6.64;;;5.06;;
60641;SDS011;46837;52.446;-1.930;2022-09-12T06:40:07;6.32;;;4.78;;
60641;SDS011;46837;52.446;-1.930;2022-09-12T06:41:08;9.96;;;5.70;;
60641;SDS011;46837;52.446;-1.930;2022-09-12T06:42:07;5.14;;;4.58;;
60641;SDS011;46837;52.446;-1.930;2022-09-12T06:43:07;7.30;;;4.86;;
60641;SDS011;46837;52.446;-1.930;2022-09-12T06:44:08;5.86;;;4.72;;
60641;SDS011;46837;52.446;-1.930;2022-09-12T06:45:07;7.54;;;5.46;;
60641;SDS011;46837;52.446;-1.930;2022-09-12T06:46:07;5.88;;;4.68;;
60641;SDS011;46837;52.446;-1.930;2022-09-12T06:47:07;5.22;;;4.46;;
60641;SDS011;46837;52.446;-1.930;2022-09-12T06:48:07;4.18;;;3.78;;
60641;SDS011;46837;52.446;-1.930;2022-09-12T06:49:07;8.50;;;4.66;;
60641;SDS011;46837;52.446;-1.930;2022-09-12T06:50:07;5.22;;;4.42;;
60641;SDS011;46837;52.446;-1.930;2022-09-12T06:51:10;9.18;;;3.94;;
60641;SDS011;46837;52.446;-1.930;2022-09-12T06:52:07;5.14;;;4.46;;
60641;SDS011;46837;52.446;-1.930;2022-09-12T06:53:07;7.48;;;3.94;;
60641;SDS011;46837;52.446;-1.930;2022-09-12T06:54:07;4.20;;;3.66;;
60641;SDS011;46837;52.446;-1.930;2022-09-12T06:55:07;9.62;;;4.40;;